Bedford, Virginia
Current Conditions -  °F | °C
As of 10:54 PM on Wednesday 22 Oct 2014 (Local Time) from KLYH Reporting Station
Clear Clear  
Wind Chill: 51°   Ceiling: Unl
Heat Index: 51°   Visibility: 10mi
Dew Point: 40°   Wind: 5mph
Humidity: 66%   Direction: 330°NNW
Pressure: 30.04"   Gusts: NA
Location:  37.33°N, 79.52°W
Report Text: KLYH 230254Z AUTO 33004KT 10SM CLR 11/04 A3004 RMK AO2 SLP172 T01060044 50009
Loading
Personal Weather Stations






























Interactive Weather Map
Tropical Storm Tracking
New forecast layout! Learn more

10-Day Weather Forecast

Advertisements
Track Severe Weather on mobile